sensor_id;sensor_type;location;lat;lon;timestamp;temperature;humidity
38726;DHT22;24474;48.906;8.808;2023-04-03T00:00:52;4.20;99.90
38726;DHT22;24474;48.906;8.808;2023-04-03T00:03:19;4.20;99.90
38726;DHT22;24474;48.906;8.808;2023-04-03T00:05:47;4.20;99.90
38726;DHT22;24474;48.906;8.808;2023-04-03T00:08:13;4.20;99.90
38726;DHT22;24474;48.906;8.808;2023-04-03T00:10:40;4.20;99.90
38726;DHT22;24474;48.906;8.808;2023-04-03T00:13:08;4.20;99.90
38726;DHT22;24474;48.906;8.808;2023-04-03T00:15:36;4.10;99.90
38726;DHT22;24474;48.906;8.808;2023-04-03T00:18:04;4.10;99.90
38726;DHT22;24474;48.906;8.808;2023-04-03T00:20:31;4.10;99.90
38726;DHT22;24474;48.906;8.808;2023-04-03T00:23:01;4.10;99.90
38726;DHT22;24474;48.906;8.808;2023-04-03T00:25:28;4.00;99.90
38726;DHT22;24474;48.906;8.808;2023-04-03T00:27:55;4.00;99.90
38726;DHT22;24474;48.906;8.808;2023-04-03T00:30:22;4.00;99.90
38726;DHT22;24474;48.906;8.808;2023-04-03T00:32:50;4.00;99.90
38726;DHT22;24474;48.906;8.808;2023-04-03T00:35:20;4.00;99.90
38726;DHT22;24474;48.906;8.808;2023-04-03T00:37:51;4.00;99.90
38726;DHT22;24474;48.906;8.808;2023-04-03T00:40:19;4.00;99.90
38726;DHT22;24474;48.906;8.808;2023-04-03T00:42:48;4.00;99.90
38726;DHT22;24474;48.906;8.808;2023-04-03T00:45:30;4.00;99.90
38726;DHT22;24474;48.906;8.808;2023-04-03T00:47:58;3.90;99.90
38726;DHT22;24474;48.906;8.808;2023-04-03T00:50:27;3.90;99.90
38726;DHT22;24474;48.906;8.808;2023-04-03T00:52:58;3.90;99.90
38726;DHT22;24474;48.906;8.808;2023-04-03T00:55:34;3.90;99.90
38726;DHT22;24474;48.906;8.808;2023-04-03T00:58:02;3.90;99.90
38726;DHT22;24474;48.906;8.808;2023-04-03T01:00:31;3.90;99.90
38726;DHT22;24474;48.906;8.808;2023-04-03T01:02:57;3.90;99.90
38726;DHT22;24474;48.906;8.808;2023-04-03T01:05:24;3.90;99.90
38726;DHT22;24474;48.906;8.808;2023-04-03T01:07:51;3.80;99.90
38726;DHT22;24474;48.906;8.808;2023-04-03T01:10:18;3.80;99.90
38726;DHT22;24474;48.906;8.808;2023-04-03T01:12:49;3.80;99.90
38726;DHT22;24474;48.906;8.808;2023-04-03T01:15:20;3.80;99.90
38726;DHT22;24474;48.906;8.808;2023-04-03T01:17:58;3.80;99.90
38726;DHT22;24474;48.906;8.808;2023-04-03T01:21:30;3.80;99.90
38726;DHT22;24474;48.906;8.808;2023-04-03T01:26:36;3.70;99.90
38726;DHT22;24474;48.906;8.808;2023-04-03T01:29:03;3.70;99.90
38726;DHT22;24474;48.906;8.808;2023-04-03T01:34:18;3.70;99.90
38726;DHT22;24474;48.906;8.808;2023-04-03T01:36:45;3.60;99.90
38726;DHT22;24474;48.906;8.808;2023-04-03T01:39:12;3.70;99.90
38726;DHT22;24474;48.906;8.808;2023-04-03T01:41:37;3.70;99.90
38726;DHT22;24474;48.906;8.808;2023-04-03T01:44:03;3.70;99.90
38726;DHT22;24474;48.906;8.808;2023-04-03T01:46:31;3.60;99.90
38726;DHT22;24474;48.906;8.808;2023-04-03T01:48:56;3.60;99.90
38726;DHT22;24474;48.906;8.808;2023-04-03T01:51:25;3.60;99.90
38726;DHT22;24474;48.906;8.808;2023-04-03T01:53:51;3.60;99.90
38726;DHT22;24474;48.906;8.808;2023-04-03T01:56:17;3.60;99.90
38726;DHT22;24474;48.906;8.808;2023-04-03T01:58:43;3.60;99.90
38726;DHT22;24474;48.906;8.808;2023-04-03T02:01:09;3.60;99.90
38726;DHT22;24474;48.906;8.808;2023-04-03T02:03:37;3.60;99.90
38726;DHT22;24474;48.906;8.808;2023-04-03T02:06:02;3.60;99.90
38726;DHT22;24474;48.906;8.808;2023-04-03T02:08:28;3.60;99.90
38726;DHT22;24474;48.906;8.808;2023-04-03T02:10:54;3.60;99.90
38726;DHT22;24474;48.906;8.808;2023-04-03T02:13:22;3.60;99.90
38726;DHT22;24474;48.906;8.808;2023-04-03T02:15:49;3.60;99.90
38726;DHT22;24474;48.906;8.808;2023-04-03T02:18:16;3.60;99.90
38726;DHT22;24474;48.906;8.808;2023-04-03T02:20:43;3.60;99.90
38726;DHT22;24474;48.906;8.808;2023-04-03T02:23:10;3.60;99.90
38726;DHT22;24474;48.906;8.808;2023-04-03T02:25:38;3.50;99.90
38726;DHT22;24474;48.906;8.808;2023-04-03T02:28:05;3.60;99.90
38726;DHT22;24474;48.906;8.808;2023-04-03T02:30:32;3.60;99.90
38726;DHT22;24474;48.906;8.808;2023-04-03T02:32:59;3.60;99.90
38726;DHT22;24474;48.906;8.808;2023-04-03T02:35:24;3.60;99.90
38726;DHT22;24474;48.906;8.808;2023-04-03T02:37:51;3.60;99.90
38726;DHT22;24474;48.906;8.808;2023-04-03T02:40:18;3.50;99.90
38726;DHT22;24474;48.906;8.808;2023-04-03T02:42:45;3.50;99.90
38726;DHT22;24474;48.906;8.808;2023-04-03T02:45:12;3.50;99.90
38726;DHT22;24474;48.906;8.808;2023-04-03T02:47:39;3.50;99.90
38726;DHT22;24474;48.906;8.808;2023-04-03T02:50:05;3.60;99.90
38726;DHT22;24474;48.906;8.808;2023-04-03T02:52:32;3.50;99.90
38726;DHT22;24474;48.906;8.808;2023-04-03T02:54:59;3.50;99.90
38726;DHT22;24474;48.906;8.808;2023-04-03T02:57:25;3.50;99.90
38726;DHT22;24474;48.906;8.808;2023-04-03T02:59:52;3.50;99.90
38726;DHT22;24474;48.906;8.808;2023-04-03T03:02:17;3.50;99.90
38726;DHT22;24474;48.906;8.808;2023-04-03T03:04:44;3.50;99.90
38726;DHT22;24474;48.906;8.808;2023-04-03T03:07:10;3.50;99.90
38726;DHT22;24474;48.906;8.808;2023-04-03T03:09:37;3.50;99.90
38726;DHT22;24474;48.906;8.808;2023-04-03T03:12:04;3.50;99.90
38726;DHT22;24474;48.906;8.808;2023-04-03T03:14:31;3.50;99.90
38726;DHT22;24474;48.906;8.808;2023-04-03T03:16:57;3.50;99.90
38726;DHT22;24474;48.906;8.808;2023-04-03T03:19:24;3.50;99.90
38726;DHT22;24474;48.906;8.808;2023-04-03T03:21:51;3.40;99.90
38726;DHT22;24474;48.906;8.808;2023-04-03T03:24:17;3.50;99.90
38726;DHT22;24474;48.906;8.808;2023-04-03T03:26:46;3.60;99.90
38726;DHT22;24474;48.906;8.808;2023-04-03T03:29:13;3.50;99.90
38726;DHT22;24474;48.906;8.808;2023-04-03T03:31:38;3.50;99.90
38726;DHT22;24474;48.906;8.808;2023-04-03T03:34:05;3.50;99.90
38726;DHT22;24474;48.906;8.808;2023-04-03T03:36:31;3.50;99.90
38726;DHT22;24474;48.906;8.808;2023-04-03T03:38:58;3.50;99.90
38726;DHT22;24474;48.906;8.808;2023-04-03T03:41:24;3.50;99.90
38726;DHT22;24474;48.906;8.808;2023-04-03T03:43:51;3.50;99.90
38726;DHT22;24474;48.906;8.808;2023-04-03T03:46:18;3.50;99.90
38726;DHT22;24474;48.906;8.808;2023-04-03T03:48:45;3.50;99.90
38726;DHT22;24474;48.906;8.808;2023-04-03T03:51:11;3.50;99.90
38726;DHT22;24474;48.906;8.808;2023-04-03T03:53:37;3.50;99.90
38726;DHT22;24474;48.906;8.808;2023-04-03T03:56:04;3.50;99.90
38726;DHT22;24474;48.906;8.808;2023-04-03T03:58:32;3.50;99.90
38726;DHT22;24474;48.906;8.808;2023-04-03T04:01:05;3.50;99.90
38726;DHT22;24474;48.906;8.808;2023-04-03T04:03:33;3.50;99.90
38726;DHT22;24474;48.906;8.808;2023-04-03T04:05:58;3.40;99.90
38726;DHT22;24474;48.906;8.808;2023-04-03T04:08:25;3.50;99.90
38726;DHT22;24474;48.906;8.808;2023-04-03T04:10:52;3.50;99.90
38726;DHT22;24474;48.906;8.808;2023-04-03T04:13:20;3.50;99.90
38726;DHT22;24474;48.906;8.808;2023-04-03T04:15:47;3.40;99.90
38726;DHT22;24474;48.906;8.808;2023-04-03T04:18:13;3.40;99.90
38726;DHT22;24474;48.906;8.808;2023-04-03T04:20:40;3.50;99.90
38726;DHT22;24474;48.906;8.808;2023-04-03T04:23:05;3.50;99.90
38726;DHT22;24474;48.906;8.808;2023-04-03T04:25:33;3.40;99.90
38726;DHT22;24474;48.906;8.808;2023-04-03T04:28:01;3.50;99.90
38726;DHT22;24474;48.906;8.808;2023-04-03T04:30:27;3.50;99.90
38726;DHT22;24474;48.906;8.808;2023-04-03T04:32:54;3.50;99.90
38726;DHT22;24474;48.906;8.808;2023-04-03T04:35:20;3.50;99.90
38726;DHT22;24474;48.906;8.808;2023-04-03T04:37:47;3.50;99.90
38726;DHT22;24474;48.906;8.808;2023-04-03T04:40:14;3.50;99.90
38726;DHT22;24474;48.906;8.808;2023-04-03T04:42:41;3.50;99.90
38726;DHT22;24474;48.906;8.808;2023-04-03T04:45:10;3.50;99.90
38726;DHT22;24474;48.906;8.808;2023-04-03T04:47:37;3.40;99.90
38726;DHT22;24474;48.906;8.808;2023-04-03T04:50:04;3.40;99.90
38726;DHT22;24474;48.906;8.808;2023-04-03T04:52:30;3.40;99.90
38726;DHT22;24474;48.906;8.808;2023-04-03T04:54:56;3.40;99.90
38726;DHT22;24474;48.906;8.808;2023-04-03T04:57:23;3.40;99.90
38726;DHT22;24474;48.906;8.808;2023-04-03T04:59:50;3.40;99.90
38726;DHT22;24474;48.906;8.808;2023-04-03T05:02:16;3.40;99.90
38726;DHT22;24474;48.906;8.808;2023-04-03T05:04:43;3.30;99.90
38726;DHT22;24474;48.906;8.808;2023-04-03T05:07:09;3.40;99.90
38726;DHT22;24474;48.906;8.808;2023-04-03T05:09:36;3.40;99.90
38726;DHT22;24474;48.906;8.808;2023-04-03T05:12:03;3.40;99.90
38726;DHT22;24474;48.906;8.808;2023-04-03T05:14:30;3.40;99.90
38726;DHT22;24474;48.906;8.808;2023-04-03T05:16:56;3.40;99.90
38726;DHT22;24474;48.906;8.808;2023-04-03T05:19:23;3.40;99.90
38726;DHT22;24474;48.906;8.808;2023-04-03T05:21:49;3.40;99.90
38726;DHT22;24474;48.906;8.808;2023-04-03T05:24:16;3.30;99.90
38726;DHT22;24474;48.906;8.808;2023-04-03T05:26:42;3.30;99.90
38726;DHT22;24474;48.906;8.808;2023-04-03T05:29:10;3.40;99.90
38726;DHT22;24474;48.906;8.808;2023-04-03T05:31:36;3.30;99.90
38726;DHT22;24474;48.906;8.808;2023-04-03T05:34:03;3.30;99.90
38726;DHT22;24474;48.906;8.808;2023-04-03T05:36:30;3.30;99.90
38726;DHT22;24474;48.906;8.808;2023-04-03T05:38:57;3.30;99.90
38726;DHT22;24474;48.906;8.808;2023-04-03T05:41:24;3.30;99.90
38726;DHT22;24474;48.906;8.808;2023-04-03T05:43:51;3.30;99.90
38726;DHT22;24474;48.906;8.808;2023-04-03T05:46:19;3.20;99.90
38726;DHT22;24474;48.906;8.808;2023-04-03T05:48:46;3.20;99.90
38726;DHT22;24474;48.906;8.808;2023-04-03T05:51:25;3.30;99.90
38726;DHT22;24474;48.906;8.808;2023-04-03T05:54:23;3.30;99.90
38726;DHT22;24474;48.906;8.808;2023-04-03T05:56:51;3.30;99.90
38726;DHT22;24474;48.906;8.808;2023-04-03T05:59:17;3.30;99.90
38726;DHT22;24474;48.906;8.808;2023-04-03T06:01:43;3.30;99.90
38726;DHT22;24474;48.906;8.808;2023-04-03T06:04:10;3.40;99.90
38726;DHT22;24474;48.906;8.808;2023-04-03T06:09:24;3.40;99.90
38726;DHT22;24474;48.906;8.808;2023-04-03T06:11:52;3.40;99.90
38726;DHT22;24474;48.906;8.808;2023-04-03T06:14:19;3.50;99.90
38726;DHT22;24474;48.906;8.808;2023-04-03T06:16:46;3.40;99.90
38726;DHT22;24474;48.906;8.808;2023-04-03T06:19:12;3.40;99.90
38726;DHT22;24474;48.906;8.808;2023-04-03T06:21:39;3.40;99.90
38726;DHT22;24474;48.906;8.808;2023-04-03T06:24:06;3.40;99.90
38726;DHT22;24474;48.906;8.808;2023-04-03T06:26:33;3.40;99.90
38726;DHT22;24474;48.906;8.808;2023-04-03T06:29:01;3.50;99.90
38726;DHT22;24474;48.906;8.808;2023-04-03T06:31:29;3.50;99.90
38726;DHT22;24474;48.906;8.808;2023-04-03T06:33:56;3.50;99.90
38726;DHT22;24474;48.906;8.808;2023-04-03T06:36:23;3.60;99.90
38726;DHT22;24474;48.906;8.808;2023-04-03T06:38:51;3.60;99.90
38726;DHT22;24474;48.906;8.808;2023-04-03T06:41:18;3.60;99.90
38726;DHT22;24474;48.906;8.808;2023-04-03T06:43:44;3.60;99.90
38726;DHT22;24474;48.906;8.808;2023-04-03T06:46:15;3.50;99.90
38726;DHT22;24474;48.906;8.808;2023-04-03T06:48:42;3.50;99.90
38726;DHT22;24474;48.906;8.808;2023-04-03T06:51:24;3.50;99.90
38726;DHT22;24474;48.906;8.808;2023-04-03T06:53:51;3.50;99.90
38726;DHT22;24474;48.906;8.808;2023-04-03T06:56:19;3.60;99.90
38726;DHT22;24474;48.906;8.808;2023-04-03T06:58:45;3.50;99.90
38726;DHT22;24474;48.906;8.808;2023-04-03T07:01:14;3.60;99.90
38726;DHT22;24474;48.906;8.808;2023-04-03T07:03:42;3.60;99.90
38726;DHT22;24474;48.906;8.808;2023-04-03T07:06:13;3.60;99.90
38726;DHT22;24474;48.906;8.808;2023-04-03T07:08:41;3.60;99.90
38726;DHT22;24474;48.906;8.808;2023-04-03T07:11:09;3.60;99.90
38726;DHT22;24474;48.906;8.808;2023-04-03T07:13:37;3.60;99.90
38726;DHT22;24474;48.906;8.808;2023-04-03T07:16:04;3.60;99.90
38726;DHT22;24474;48.906;8.808;2023-04-03T07:18:32;3.60;99.90
38726;DHT22;24474;48.906;8.808;2023-04-03T07:20:59;3.70;99.90
38726;DHT22;24474;48.906;8.808;2023-04-03T07:23:25;3.70;99.90
38726;DHT22;24474;48.906;8.808;2023-04-03T07:25:52;3.70;99.90
38726;DHT22;24474;48.906;8.808;2023-04-03T07:28:21;3.80;99.90
38726;DHT22;24474;48.906;8.808;2023-04-03T07:31:04;3.80;99.90
38726;DHT22;24474;48.906;8.808;2023-04-03T07:33:33;3.80;99.90
38726;DHT22;24474;48.906;8.808;2023-04-03T07:36:01;3.90;99.90
38726;DHT22;24474;48.906;8.808;2023-04-03T07:38:28;3.90;99.90
38726;DHT22;24474;48.906;8.808;2023-04-03T07:40:55;3.90;99.90
38726;DHT22;24474;48.906;8.808;2023-04-03T07:43:21;3.90;99.90
38726;DHT22;24474;48.906;8.808;2023-04-03T07:45:49;4.00;99.90
38726;DHT22;24474;48.906;8.808;2023-04-03T07:48:22;4.00;99.90
38726;DHT22;24474;48.906;8.808;2023-04-03T07:50:48;4.10;99.90
38726;DHT22;24474;48.906;8.808;2023-04-03T07:53:15;4.10;99.90
38726;DHT22;24474;48.906;8.808;2023-04-03T07:55:42;4.20;99.90
38726;DHT22;24474;48.906;8.808;2023-04-03T07:58:11;4.20;99.90
38726;DHT22;24474;48.906;8.808;2023-04-03T08:00:37;4.20;99.90
38726;DHT22;24474;48.906;8.808;2023-04-03T08:03:07;4.20;99.90
38726;DHT22;24474;48.906;8.808;2023-04-03T08:05:45;4.10;99.90
38726;DHT22;24474;48.906;8.808;2023-04-03T08:08:16;4.10;99.90
38726;DHT22;24474;48.906;8.808;2023-04-03T08:10:42;4.10;99.90
38726;DHT22;24474;48.906;8.808;2023-04-03T08:13:10;4.20;99.90
38726;DHT22;24474;48.906;8.808;2023-04-03T08:15:36;4.20;99.90
38726;DHT22;24474;48.906;8.808;2023-04-03T08:18:03;4.20;99.90
38726;DHT22;24474;48.906;8.808;2023-04-03T08:20:30;4.30;99.90
38726;DHT22;24474;48.906;8.808;2023-04-03T08:22:57;4.20;99.90
38726;DHT22;24474;48.906;8.808;2023-04-03T08:25:24;4.20;99.90
38726;DHT22;24474;48.906;8.808;2023-04-03T08:27:50;4.30;99.90
38726;DHT22;24474;48.906;8.808;2023-04-03T08:30:17;4.40;99.90
38726;DHT22;24474;48.906;8.808;2023-04-03T08:32:44;4.40;99.90
38726;DHT22;24474;48.906;8.808;2023-04-03T08:35:11;4.50;99.90
38726;DHT22;24474;48.906;8.808;2023-04-03T08:37:37;4.60;99.90
38726;DHT22;24474;48.906;8.808;2023-04-03T08:40:06;4.60;99.90
38726;DHT22;24474;48.906;8.808;2023-04-03T08:48:36;4.70;99.90
38726;DHT22;24474;48.906;8.808;2023-04-03T08:51:20;4.80;99.90
38726;DHT22;24474;48.906;8.808;2023-04-03T08:54:05;4.80;99.90
38726;DHT22;24474;48.906;8.808;2023-04-03T08:56:34;4.90;99.90
38726;DHT22;24474;48.906;8.808;2023-04-03T08:59:14;5.00;99.90
38726;DHT22;24474;48.906;8.808;2023-04-03T09:01:44;5.00;99.90
38726;DHT22;24474;48.906;8.808;2023-04-03T09:04:18;5.00;99.90
38726;DHT22;24474;48.906;8.808;2023-04-03T09:07:08;5.00;99.90
38726;DHT22;24474;48.906;8.808;2023-04-03T09:09:41;5.00;99.90
38726;DHT22;24474;48.906;8.808;2023-04-03T09:12:27;5.10;99.90
38726;DHT22;24474;48.906;8.808;2023-04-03T09:15:22;5.30;99.90
38726;DHT22;24474;48.906;8.808;2023-04-03T09:21:07;5.50;99.90
38726;DHT22;24474;48.906;8.808;2023-04-03T09:23:50;5.60;99.90
38726;DHT22;24474;48.906;8.808;2023-04-03T09:26:30;5.70;99.90
38726;DHT22;24474;48.906;8.808;2023-04-03T09:29:05;5.60;99.90
38726;DHT22;24474;48.906;8.808;2023-04-03T09:31:43;5.60;99.90
38726;DHT22;24474;48.906;8.808;2023-04-03T09:34:26;5.60;99.90
38726;DHT22;24474;48.906;8.808;2023-04-03T09:37:00;5.60;99.90
38726;DHT22;24474;48.906;8.808;2023-04-03T09:39:50;5.60;99.90
38726;DHT22;24474;48.906;8.808;2023-04-03T09:42:21;5.70;99.90
38726;DHT22;24474;48.906;8.808;2023-04-03T09:45:04;5.70;99.90
38726;DHT22;24474;48.906;8.808;2023-04-03T09:47:35;5.70;99.90
38726;DHT22;24474;48.906;8.808;2023-04-03T09:50:22;5.70;99.90
38726;DHT22;24474;48.906;8.808;2023-04-03T09:52:50;5.80;99.90
38726;DHT22;24474;48.906;8.808;2023-04-03T09:55:27;5.80;99.90
38726;DHT22;24474;48.906;8.808;2023-04-03T09:58:01;5.80;99.90
38726;DHT22;24474;48.906;8.808;2023-04-03T10:00:35;5.80;99.90
38726;DHT22;24474;48.906;8.808;2023-04-03T10:03:27;5.80;99.90
38726;DHT22;24474;48.906;8.808;2023-04-03T10:05:53;5.70;99.90
38726;DHT22;24474;48.906;8.808;2023-04-03T10:08:33;5.70;99.90
38726;DHT22;24474;48.906;8.808;2023-04-03T10:11:26;5.80;99.90
38726;DHT22;24474;48.906;8.808;2023-04-03T10:14:03;5.80;99.90
38726;DHT22;24474;48.906;8.808;2023-04-03T10:16:42;5.90;99.90
38726;DHT22;24474;48.906;8.808;2023-04-03T10:42:28;6.30;99.90
38726;DHT22;24474;48.906;8.808;2023-04-03T10:54:37;6.00;99.90
38726;DHT22;24474;48.906;8.808;2023-04-03T10:57:08;6.00;99.90
38726;DHT22;24474;48.906;8.808;2023-04-03T10:59:53;6.10;99.90
38726;DHT22;24474;48.906;8.808;2023-04-03T11:02:42;6.20;99.90
38726;DHT22;24474;48.906;8.808;2023-04-03T11:08:27;6.20;99.90
38726;DHT22;24474;48.906;8.808;2023-04-03T11:11:03;6.10;99.90
38726;DHT22;24474;48.906;8.808;2023-04-03T11:13:38;6.00;99.90
38726;DHT22;24474;48.906;8.808;2023-04-03T11:16:08;6.00;99.90
38726;DHT22;24474;48.906;8.808;2023-04-03T11:19:08;6.00;99.90
38726;DHT22;24474;48.906;8.808;2023-04-03T11:22:01;6.00;99.90
38726;DHT22;24474;48.906;8.808;2023-04-03T11:24:32;6.10;99.90
38726;DHT22;24474;48.906;8.808;2023-04-03T11:27:03;6.20;99.90
38726;DHT22;24474;48.906;8.808;2023-04-03T11:29:36;6.30;99.90
38726;DHT22;24474;48.906;8.808;2023-04-03T11:32:36;6.30;99.90
38726;DHT22;24474;48.906;8.808;2023-04-03T11:35:09;6.30;99.90
38726;DHT22;24474;48.906;8.808;2023-04-03T11:37:57;6.40;99.90
38726;DHT22;24474;48.906;8.808;2023-04-03T11:40:33;6.40;99.90
38726;DHT22;24474;48.906;8.808;2023-04-03T11:43:16;6.50;99.90
38726;DHT22;24474;48.906;8.808;2023-04-03T11:46:05;6.50;99.90
38726;DHT22;24474;48.906;8.808;2023-04-03T11:48:45;6.60;99.90
38726;DHT22;24474;48.906;8.808;2023-04-03T11:51:37;6.60;99.90
38726;DHT22;24474;48.906;8.808;2023-04-03T12:00:48;6.60;99.90
38726;DHT22;24474;48.906;8.808;2023-04-03T12:03:32;6.60;99.90
38726;DHT22;24474;48.906;8.808;2023-04-03T12:24:37;6.60;99.90
38726;DHT22;24474;48.906;8.808;2023-04-03T12:30:12;6.70;99.90
38726;DHT22;24474;48.906;8.808;2023-04-03T12:32:54;6.60;99.90
38726;DHT22;24474;48.906;8.808;2023-04-03T12:36:18;6.60;99.90
38726;DHT22;24474;48.906;8.808;2023-04-03T12:42:15;6.70;99.90
38726;DHT22;24474;48.906;8.808;2023-04-03T12:45:02;6.80;99.90
38726;DHT22;24474;48.906;8.808;2023-04-03T12:47:35;6.80;99.90
38726;DHT22;24474;48.906;8.808;2023-04-03T12:52:56;6.80;99.90
38726;DHT22;24474;48.906;8.808;2023-04-03T12:55:23;6.80;99.90
38726;DHT22;24474;48.906;8.808;2023-04-03T12:57:49;6.80;99.90
38726;DHT22;24474;48.906;8.808;2023-04-03T13:00:38;6.70;99.90
38726;DHT22;24474;48.906;8.808;2023-04-03T13:03:21;6.70;99.90
38726;DHT22;24474;48.906;8.808;2023-04-03T13:05:48;6.70;99.90
38726;DHT22;24474;48.906;8.808;2023-04-03T13:08:16;6.70;99.90
38726;DHT22;24474;48.906;8.808;2023-04-03T13:11:01;6.70;99.90
38726;DHT22;24474;48.906;8.808;2023-04-03T13:13:29;6.70;99.90
38726;DHT22;24474;48.906;8.808;2023-04-03T13:15:57;6.70;99.90
38726;DHT22;24474;48.906;8.808;2023-04-03T13:18:34;6.70;99.90
38726;DHT22;24474;48.906;8.808;2023-04-03T13:21:06;6.70;99.90
38726;DHT22;24474;48.906;8.808;2023-04-03T13:23:40;6.70;99.90
38726;DHT22;24474;48.906;8.808;2023-04-03T13:26:09;6.80;99.90
38726;DHT22;24474;48.906;8.808;2023-04-03T13:28:36;6.90;99.90
38726;DHT22;24474;48.906;8.808;2023-04-03T13:31:25;6.90;99.90
38726;DHT22;24474;48.906;8.808;2023-04-03T13:34:13;6.90;99.90
38726;DHT22;24474;48.906;8.808;2023-04-03T13:36:50;6.90;99.90
38726;DHT22;24474;48.906;8.808;2023-04-03T13:39:28;6.90;99.90
38726;DHT22;24474;48.906;8.808;2023-04-03T13:41:58;6.90;99.90
38726;DHT22;24474;48.906;8.808;2023-04-03T13:44:33;6.80;99.90
38726;DHT22;24474;48.906;8.808;2023-04-03T13:47:22;6.80;99.90
38726;DHT22;24474;48.906;8.808;2023-04-03T13:50:15;6.80;99.90
38726;DHT22;24474;48.906;8.808;2023-04-03T13:55:35;6.80;99.90
38726;DHT22;24474;48.906;8.808;2023-04-03T13:58:22;6.70;99.90
38726;DHT22;24474;48.906;8.808;2023-04-03T14:01:07;6.80;99.90
38726;DHT22;24474;48.906;8.808;2023-04-03T14:04:20;6.80;99.90
38726;DHT22;24474;48.906;8.808;2023-04-03T14:06:45;6.80;99.90
38726;DHT22;24474;48.906;8.808;2023-04-03T14:09:13;6.80;99.90
38726;DHT22;24474;48.906;8.808;2023-04-03T14:11:41;6.90;99.90
38726;DHT22;24474;48.906;8.808;2023-04-03T14:14:29;6.90;99.90
38726;DHT22;24474;48.906;8.808;2023-04-03T14:16:59;6.90;99.90
38726;DHT22;24474;48.906;8.808;2023-04-03T14:19:32;6.90;99.90
38726;DHT22;24474;48.906;8.808;2023-04-03T14:22:00;7.00;99.90
38726;DHT22;24474;48.906;8.808;2023-04-03T14:24:28;7.00;99.90
38726;DHT22;24474;48.906;8.808;2023-04-03T14:26:57;7.10;99.90
38726;DHT22;24474;48.906;8.808;2023-04-03T14:29:26;7.00;99.50
38726;DHT22;24474;48.906;8.808;2023-04-03T14:32:01;7.00;99.90
38726;DHT22;24474;48.906;8.808;2023-04-03T14:34:28;6.90;99.80
38726;DHT22;24474;48.906;8.808;2023-04-03T14:36:55;6.90;99.90
38726;DHT22;24474;48.906;8.808;2023-04-03T14:39:23;6.90;99.90
38726;DHT22;24474;48.906;8.808;2023-04-03T14:41:51;6.90;99.90
38726;DHT22;24474;48.906;8.808;2023-04-03T14:44:18;6.80;99.90
38726;DHT22;24474;48.906;8.808;2023-04-03T14:46:46;6.80;99.90
38726;DHT22;24474;48.906;8.808;2023-04-03T14:49:21;6.80;99.90
38726;DHT22;24474;48.906;8.808;2023-04-03T14:51:47;6.90;99.90
38726;DHT22;24474;48.906;8.808;2023-04-03T14:54:20;6.80;99.90
38726;DHT22;24474;48.906;8.808;2023-04-03T14:56:52;6.80;99.90
38726;DHT22;24474;48.906;8.808;2023-04-03T14:59:19;6.80;99.30
38726;DHT22;24474;48.906;8.808;2023-04-03T15:01:48;6.80;99.90
38726;DHT22;24474;48.906;8.808;2023-04-03T15:04:18;6.90;99.40
38726;DHT22;24474;48.906;8.808;2023-04-03T15:06:45;6.90;99.90
38726;DHT22;24474;48.906;8.808;2023-04-03T15:09:26;6.80;99.20
38726;DHT22;24474;48.906;8.808;2023-04-03T15:11:55;6.90;98.90
38726;DHT22;24474;48.906;8.808;2023-04-03T15:14:22;6.90;99.50
38726;DHT22;24474;48.906;8.808;2023-04-03T15:16:50;6.90;99.00
38726;DHT22;24474;48.906;8.808;2023-04-03T15:19:16;7.00;99.00
38726;DHT22;24474;48.906;8.808;2023-04-03T15:21:44;7.00;98.50
38726;DHT22;24474;48.906;8.808;2023-04-03T15:24:11;6.90;98.60
38726;DHT22;24474;48.906;8.808;2023-04-03T15:26:38;6.90;98.60
38726;DHT22;24474;48.906;8.808;2023-04-03T15:29:05;6.90;98.40
38726;DHT22;24474;48.906;8.808;2023-04-03T15:31:32;6.80;98.90
38726;DHT22;24474;48.906;8.808;2023-04-03T15:33:59;6.80;99.10
38726;DHT22;24474;48.906;8.808;2023-04-03T15:36:27;6.80;98.70
38726;DHT22;24474;48.906;8.808;2023-04-03T15:38:55;6.80;99.50
38726;DHT22;24474;48.906;8.808;2023-04-03T15:41:21;6.80;98.30
38726;DHT22;24474;48.906;8.808;2023-04-03T15:43:48;6.80;98.20
38726;DHT22;24474;48.906;8.808;2023-04-03T15:46:13;6.80;99.00
38726;DHT22;24474;48.906;8.808;2023-04-03T15:48:42;6.90;99.00
38726;DHT22;24474;48.906;8.808;2023-04-03T15:51:09;6.90;99.20
38726;DHT22;24474;48.906;8.808;2023-04-03T15:53:37;6.90;97.90
38726;DHT22;24474;48.906;8.808;2023-04-03T15:56:05;6.80;98.10
38726;DHT22;24474;48.906;8.808;2023-04-03T15:58:30;6.70;98.00
38726;DHT22;24474;48.906;8.808;2023-04-03T16:00:57;6.60;98.00
38726;DHT22;24474;48.906;8.808;2023-04-03T16:03:25;6.60;98.50
38726;DHT22;24474;48.906;8.808;2023-04-03T16:05:56;6.50;99.00
38726;DHT22;24474;48.906;8.808;2023-04-03T16:08:23;6.50;99.50
38726;DHT22;24474;48.906;8.808;2023-04-03T16:10:53;6.60;99.70
38726;DHT22;24474;48.906;8.808;2023-04-03T16:13:20;6.70;99.60
38726;DHT22;24474;48.906;8.808;2023-04-03T16:15:52;6.70;98.90
38726;DHT22;24474;48.906;8.808;2023-04-03T16:18:19;6.70;99.10
38726;DHT22;24474;48.906;8.808;2023-04-03T16:20:44;6.80;98.50
38726;DHT22;24474;48.906;8.808;2023-04-03T16:23:13;6.80;98.60
38726;DHT22;24474;48.906;8.808;2023-04-03T16:25:39;6.70;98.20
38726;DHT22;24474;48.906;8.808;2023-04-03T16:28:13;6.70;98.20
38726;DHT22;24474;48.906;8.808;2023-04-03T16:30:40;6.70;98.40
38726;DHT22;24474;48.906;8.808;2023-04-03T16:33:08;6.70;98.60
38726;DHT22;24474;48.906;8.808;2023-04-03T16:35:35;6.70;97.90
38726;DHT22;24474;48.906;8.808;2023-04-03T16:38:02;6.70;98.40
38726;DHT22;24474;48.906;8.808;2023-04-03T16:40:30;6.70;98.00
38726;DHT22;24474;48.906;8.808;2023-04-03T16:42:58;6.70;98.50
38726;DHT22;24474;48.906;8.808;2023-04-03T16:45:23;6.60;98.10
38726;DHT22;24474;48.906;8.808;2023-04-03T16:47:49;6.60;98.40
38726;DHT22;24474;48.906;8.808;2023-04-03T16:50:17;6.50;98.90
38726;DHT22;24474;48.906;8.808;2023-04-03T16:52:47;6.50;98.00
38726;DHT22;24474;48.906;8.808;2023-04-03T16:55:14;6.50;98.10
38726;DHT22;24474;48.906;8.808;2023-04-03T16:57:41;6.50;98.20
38726;DHT22;24474;48.906;8.808;2023-04-03T17:00:08;6.50;98.60
38726;DHT22;24474;48.906;8.808;2023-04-03T17:02:34;6.40;98.50
38726;DHT22;24474;48.906;8.808;2023-04-03T17:05:02;6.40;98.40
38726;DHT22;24474;48.906;8.808;2023-04-03T17:07:28;6.40;98.40
38726;DHT22;24474;48.906;8.808;2023-04-03T17:09:55;6.40;98.90
38726;DHT22;24474;48.906;8.808;2023-04-03T17:12:22;6.30;99.00
38726;DHT22;24474;48.906;8.808;2023-04-03T17:14:49;6.30;98.60
38726;DHT22;24474;48.906;8.808;2023-04-03T17:17:20;6.30;98.80
38726;DHT22;24474;48.906;8.808;2023-04-03T17:19:51;6.20;98.30
38726;DHT22;24474;48.906;8.808;2023-04-03T17:22:20;6.20;98.70
38726;DHT22;24474;48.906;8.808;2023-04-03T17:24:50;6.20;98.70
38726;DHT22;24474;48.906;8.808;2023-04-03T17:27:17;6.20;99.20
38726;DHT22;24474;48.906;8.808;2023-04-03T17:29:43;6.20;99.30
38726;DHT22;24474;48.906;8.808;2023-04-03T17:32:13;6.10;99.00
38726;DHT22;24474;48.906;8.808;2023-04-03T17:34:42;6.10;99.10
38726;DHT22;24474;48.906;8.808;2023-04-03T17:37:12;6.00;99.20